createdAt,value
2022-12-05T00:02:35.372Z,36.05
2022-12-05T00:05:21.152Z,34.72
2022-12-05T00:08:06.773Z,34.42
2022-12-05T00:10:52.268Z,37.50
2022-12-05T00:13:40.388Z,39.42
2022-12-05T00:16:33.044Z,38.15
2022-12-05T00:19:19.205Z,34.53
2022-12-05T00:22:04.742Z,36.40
2022-12-05T00:24:50.489Z,35.30
2022-12-05T00:27:36.536Z,35.85
2022-12-05T00:30:21.856Z,39.58
2022-12-05T00:33:07.820Z,38.45
2022-12-05T00:35:53.616Z,35.22
2022-12-05T00:38:40.082Z,33.88
2022-12-05T00:41:28.272Z,34.20
2022-12-05T00:44:14.022Z,34.70
2022-12-05T00:46:59.547Z,33.67
2022-12-05T00:49:45.312Z,36.55
2022-12-05T00:52:31.484Z,38.15
2022-12-05T00:55:17.311Z,34.20
2022-12-05T00:58:02.756Z,36.78
2022-12-05T01:00:48.764Z,34.70
2022-12-05T01:03:34.872Z,35.88
2022-12-05T01:06:21.569Z,32.33
2022-12-05T01:09:07.507Z,32.90
2022-12-05T01:11:53.676Z,30.08
2022-12-05T01:14:39.064Z,31.80
2022-12-05T01:17:24.472Z,37.30
2022-12-05T01:20:10.495Z,31.75
2022-12-05T01:22:56.056Z,32.55
2022-12-05T01:25:44.040Z,33.58
2022-12-05T01:28:29.804Z,31.70
2022-12-05T01:31:29.150Z,34.35
2022-12-05T01:34:17.008Z,32.90
2022-12-05T01:37:03.113Z,33.40
2022-12-05T01:39:49.431Z,35.63
2022-12-05T01:42:35.135Z,37.80
2022-12-05T01:45:34.806Z,36.15
2022-12-05T01:48:33.345Z,38.40
2022-12-05T01:51:19.271Z,36.13
2022-12-05T01:54:06.066Z,35.17
2022-12-05T01:56:57.996Z,36.83
2022-12-05T01:59:51.914Z,37.60
2022-12-05T02:02:39.132Z,39.10
2022-12-05T02:05:36.265Z,37.90
2022-12-05T02:08:22.347Z,37.17
2022-12-05T02:11:09.410Z,36.42
2022-12-05T02:14:16.230Z,37.15
2022-12-05T02:17:10.007Z,34.25
2022-12-05T02:20:41.695Z,33.05
2022-12-05T02:23:51.876Z,35.22
2022-12-05T02:27:12.916Z,32.20
2022-12-05T02:30:06.925Z,33.47
2022-12-05T02:32:52.883Z,29.40
2022-12-05T02:36:03.970Z,33.10
2022-12-05T02:39:03.141Z,33.20
2022-12-05T02:41:51.615Z,34.30
2022-12-05T02:44:51.206Z,32.03
2022-12-05T02:47:46.551Z,32.10
2022-12-05T02:50:36.502Z,32.00
2022-12-05T02:53:24.134Z,31.88
2022-12-05T02:56:10.697Z,31.52
2022-12-05T02:58:56.748Z,35.80
2022-12-05T03:01:45.741Z,29.70
2022-12-05T03:04:32.002Z,34.15
2022-12-05T03:07:19.995Z,28.98
2022-12-05T03:10:08.031Z,29.45
2022-12-05T03:13:03.479Z,28.20
2022-12-05T03:15:53.452Z,29.05
2022-12-05T03:18:56.652Z,30.98
2022-12-05T03:22:10.572Z,32.53
2022-12-05T03:24:56.741Z,29.85
2022-12-05T03:28:12.803Z,31.33
2022-12-05T03:31:05.203Z,29.17
2022-12-05T03:33:58.432Z,31.88
2022-12-05T03:36:52.667Z,32.53
2022-12-05T03:39:42.104Z,32.15
2022-12-05T03:42:35.185Z,33.03
2022-12-05T03:45:31.984Z,31.25
2022-12-05T03:48:37.090Z,35.05
2022-12-05T03:51:28.671Z,33.92
2022-12-05T03:54:18.892Z,26.10
2022-12-05T03:57:23.055Z,30.73
2022-12-05T04:00:12.492Z,28.17
2022-12-05T04:03:08.000Z,30.67
2022-12-05T04:05:58.988Z,30.35
2022-12-05T04:08:49.639Z,29.88
2022-12-05T04:11:41.250Z,27.10
2022-12-05T04:14:44.902Z,29.55
2022-12-05T04:18:00.507Z,25.92
2022-12-05T04:21:07.575Z,30.58
2022-12-05T04:24:13.259Z,25.98
2022-12-05T04:27:22.976Z,30.75
2022-12-05T04:30:21.507Z,28.92
2022-12-05T04:33:11.499Z,28.80
2022-12-05T04:36:09.846Z,30.92
2022-12-05T04:39:01.865Z,26.77
2022-12-05T04:41:55.539Z,27.52
2022-12-05T04:47:45.640Z,29.20
2022-12-05T04:50:34.751Z,27.83
2022-12-05T04:53:22.278Z,28.20
2022-12-05T04:56:14.683Z,30.48
2022-12-05T04:59:00.467Z,30.95
2022-12-05T05:01:51.474Z,41.30
2022-12-05T05:04:43.364Z,37.60
2022-12-05T05:07:29.417Z,34.78
2022-12-05T05:10:19.805Z,40.05
2022-12-05T05:13:05.687Z,41.03
2022-12-05T05:15:51.601Z,39.05
2022-12-05T05:18:37.466Z,37.97
2022-12-05T05:21:35.317Z,45.47
2022-12-05T05:24:26.302Z,39.88
2022-12-05T05:27:11.839Z,42.33
2022-12-05T05:29:57.550Z,41.55
2022-12-05T05:32:43.548Z,47.63
2022-12-05T05:35:29.494Z,46.33
2022-12-05T05:38:15.112Z,45.42
2022-12-05T05:41:01.158Z,49.67
2022-12-05T05:43:47.288Z,56.47
2022-12-05T05:46:35.421Z,52.95
2022-12-05T05:49:21.086Z,54.00
2022-12-05T05:52:06.972Z,55.65
2022-12-05T05:54:52.789Z,53.25
2022-12-05T05:57:38.363Z,56.72
2022-12-05T06:00:24.230Z,52.00
2022-12-05T06:03:10.164Z,50.78
2022-12-05T06:06:00.358Z,49.80
2022-12-05T06:08:46.695Z,46.08
2022-12-05T06:11:32.205Z,49.65
2022-12-05T06:14:18.057Z,49.00
2022-12-05T06:17:03.783Z,49.83
2022-12-05T06:19:49.658Z,51.10
2022-12-05T06:22:35.067Z,46.38
2022-12-05T06:25:21.877Z,45.45
2022-12-05T06:28:07.328Z,47.63
2022-12-05T06:30:54.560Z,46.38
2022-12-05T06:33:39.890Z,46.55
2022-12-05T06:36:26.788Z,51.17
2022-12-05T06:39:12.269Z,48.47
2022-12-05T06:41:57.928Z,48.25
2022-12-05T06:44:43.626Z,44.53
2022-12-05T06:47:29.534Z,45.58
2022-12-05T06:50:15.349Z,44.28
2022-12-05T06:53:00.974Z,48.08
2022-12-05T06:56:01.335Z,40.65
2022-12-05T06:58:50.163Z,40.65
2022-12-05T07:01:39.166Z,39.88
2022-12-05T07:04:25.265Z,40.83
2022-12-05T07:07:11.187Z,41.80
2022-12-05T07:09:57.582Z,44.05
2022-12-05T07:12:43.455Z,48.85
2022-12-05T07:15:29.362Z,47.60
2022-12-05T07:18:16.383Z,45.30
2022-12-05T07:21:12.080Z,42.42
2022-12-05T07:23:58.739Z,45.15
2022-12-05T07:26:44.083Z,42.67
2022-12-05T07:29:30.156Z,48.08
2022-12-05T07:32:15.714Z,44.28
2022-12-05T07:35:01.674Z,44.42
2022-12-05T07:37:47.118Z,47.25
2022-12-05T07:40:33.101Z,49.03
2022-12-05T07:43:18.725Z,43.10
2022-12-05T07:46:06.615Z,50.05
2022-12-05T07:48:52.766Z,52.28
2022-12-05T07:51:38.963Z,47.65
2022-12-05T07:54:24.432Z,52.08
2022-12-05T07:57:10.015Z,76.75
2022-12-05T07:59:56.331Z,65.72
2022-12-05T08:02:42.054Z,65.57
2022-12-05T08:05:27.943Z,48.50
2022-12-05T08:08:13.933Z,47.53
2022-12-05T08:11:17.509Z,44.83
2022-12-05T08:16:50.145Z,47.25
2022-12-05T08:19:35.641Z,40.13
2022-12-05T08:22:21.753Z,39.85
2022-12-05T08:25:07.809Z,40.20
2022-12-05T08:27:53.613Z,37.95
2022-12-05T08:30:39.281Z,43.03
2022-12-05T08:33:24.999Z,63.40
2022-12-05T08:36:13.370Z,59.60
2022-12-05T08:39:01.364Z,52.00
2022-12-05T08:41:47.782Z,52.88
2022-12-05T08:44:33.480Z,50.60
2022-12-05T08:47:19.468Z,52.85
2022-12-05T08:50:05.346Z,49.40
2022-12-05T08:52:51.166Z,53.75
2022-12-05T08:55:37.049Z,56.78
2022-12-05T08:58:22.619Z,43.55
2022-12-05T09:01:14.065Z,54.70
2022-12-05T09:04:01.208Z,55.20
2022-12-05T09:06:46.832Z,57.35
2022-12-05T09:09:33.599Z,53.95
2022-12-05T09:12:19.582Z,54.80
2022-12-05T09:15:07.451Z,57.85
2022-12-05T09:17:52.836Z,49.05
2022-12-05T09:20:39.820Z,48.75
2022-12-05T09:23:25.344Z,54.15
2022-12-05T09:26:14.380Z,63.55
2022-12-05T09:29:01.396Z,55.65
2022-12-05T09:31:48.861Z,57.30
2022-12-05T09:34:35.042Z,53.47
2022-12-05T09:37:38.887Z,49.92
2022-12-05T09:40:25.426Z,65.20
2022-12-05T09:43:25.559Z,57.08
2022-12-05T09:46:35.888Z,46.38
2022-12-05T09:49:23.657Z,42.15
2022-12-05T09:52:17.872Z,46.15
2022-12-05T09:55:13.984Z,39.50
2022-12-05T09:58:02.431Z,36.35
2022-12-05T10:00:51.891Z,37.50
2022-12-05T10:03:58.235Z,37.78
2022-12-05T10:06:49.239Z,32.40
2022-12-05T10:09:53.974Z,36.28
2022-12-05T10:13:06.354Z,31.00
2022-12-05T10:16:02.933Z,29.83
2022-12-05T10:19:00.972Z,30.42
2022-12-05T10:21:52.521Z,29.70
2022-12-05T10:24:50.410Z,29.73
2022-12-05T10:27:40.268Z,24.88
2022-12-05T10:30:36.073Z,28.48
2022-12-05T10:33:23.935Z,23.40
2022-12-05T10:36:14.634Z,25.48
2022-12-05T10:39:00.566Z,23.95
2022-12-05T10:41:46.470Z,25.48
2022-12-05T10:44:34.040Z,27.60
2022-12-05T10:47:19.552Z,33.33
2022-12-05T10:50:19.916Z,34.83
2022-12-05T10:53:07.141Z,30.40
2022-12-05T10:56:28.057Z,32.17
2022-12-05T10:59:00.531Z,26.27
2022-12-05T11:01:58.677Z,25.98
2022-12-05T11:04:46.126Z,27.85
2022-12-05T11:07:35.405Z,24.38
2022-12-05T11:10:27.916Z,30.23
2022-12-05T11:13:24.928Z,27.05
2022-12-05T11:16:26.992Z,23.95
2022-12-05T11:19:22.024Z,25.65
2022-12-05T11:22:16.484Z,26.70
2022-12-05T11:25:28.443Z,24.90
2022-12-05T11:28:17.440Z,24.58
2022-12-05T11:31:16.854Z,26.15
2022-12-05T11:34:16.759Z,24.17
2022-12-05T11:37:28.415Z,24.80
2022-12-05T11:40:17.325Z,23.25
2022-12-05T11:43:24.331Z,20.67
2022-12-05T11:46:23.593Z,19.40
2022-12-05T11:49:24.061Z,23.90
2022-12-05T11:52:40.477Z,20.58
2022-12-05T11:55:29.392Z,21.65
2022-12-05T11:58:37.343Z,19.67
2022-12-05T12:01:44.635Z,20.65
2022-12-05T12:04:45.701Z,19.63
2022-12-05T12:07:37.400Z,19.67
2022-12-05T12:10:38.370Z,23.88
2022-12-05T12:13:57.755Z,24.20
2022-12-05T12:17:15.792Z,19.63
2022-12-05T12:20:37.871Z,25.05
2022-12-05T12:23:38.281Z,18.95
2022-12-05T12:26:42.472Z,21.30
2022-12-05T12:29:59.120Z,24.83
2022-12-05T12:32:53.861Z,27.60
2022-12-05T12:36:02.915Z,27.70
2022-12-05T12:39:18.212Z,28.77
2022-12-05T12:42:35.489Z,29.15
2022-12-05T12:45:39.658Z,33.47
2022-12-05T12:48:41.318Z,26.60
2022-12-05T12:51:30.165Z,29.92
2022-12-05T12:55:03.838Z,29.08
2022-12-05T12:58:06.115Z,29.52
2022-12-05T13:00:58.367Z,26.45
2022-12-05T13:03:52.356Z,26.30
2022-12-05T13:06:57.836Z,26.98
2022-12-05T13:10:07.910Z,29.08
2022-12-05T13:12:55.534Z,24.73
2022-12-05T13:15:54.641Z,24.75
2022-12-05T13:18:41.221Z,25.88
2022-12-05T13:21:28.480Z,26.13
2022-12-05T13:24:25.452Z,28.13
2022-12-05T13:27:20.456Z,35.88
2022-12-05T13:30:13.421Z,30.23
2022-12-05T13:33:06.934Z,24.23
2022-12-05T13:36:27.173Z,31.73
2022-12-05T13:39:31.728Z,24.27
2022-12-05T13:42:30.416Z,22.50
2022-12-05T13:45:20.144Z,27.08
2022-12-05T13:48:20.735Z,27.67
2022-12-05T13:51:12.027Z,32.00
2022-12-05T13:54:03.742Z,26.88
2022-12-05T13:56:54.177Z,25.92
2022-12-05T14:00:08.097Z,27.10
2022-12-05T14:03:19.624Z,32.92
2022-12-05T14:06:06.975Z,28.90
2022-12-05T14:08:54.056Z,29.42
2022-12-05T14:12:10.593Z,28.73
2022-12-05T14:14:57.170Z,28.05
2022-12-05T14:17:43.957Z,33.28
2022-12-05T14:20:52.613Z,41.15
2022-12-05T14:23:51.772Z,34.55
2022-12-05T14:27:08.506Z,38.97
2022-12-05T14:30:03.304Z,34.90
2022-12-05T14:32:50.401Z,32.15
2022-12-05T14:35:47.758Z,28.08
2022-12-05T14:38:36.675Z,25.95
2022-12-05T14:41:36.155Z,28.25
2022-12-05T14:44:22.294Z,22.10
2022-12-05T14:47:20.115Z,24.55
2022-12-05T14:50:35.009Z,22.48
2022-12-05T14:53:34.924Z,27.25
2022-12-05T14:56:23.620Z,25.77
2022-12-05T14:59:33.488Z,27.63
2022-12-05T15:02:37.052Z,27.80
2022-12-05T15:05:31.390Z,27.08
2022-12-05T15:08:17.872Z,28.73
2022-12-05T15:11:04.541Z,40.13
2022-12-05T15:13:50.866Z,29.13
2022-12-05T15:16:42.578Z,26.63
2022-12-05T15:19:43.372Z,22.77
2022-12-05T15:22:32.178Z,20.77
2022-12-05T15:25:33.209Z,20.15
2022-12-05T15:28:20.235Z,22.05
2022-12-05T15:31:11.787Z,22.75
2022-12-05T15:34:01.215Z,23.83
2022-12-05T15:37:03.971Z,21.83
2022-12-05T15:39:50.208Z,17.52
2022-12-05T15:42:45.816Z,28.58
2022-12-05T15:45:32.050Z,20.30
2022-12-05T15:48:22.922Z,20.05
2022-12-05T15:51:09.130Z,17.00
2022-12-05T15:54:11.852Z,20.60
2022-12-05T15:57:01.878Z,21.77
2022-12-05T16:00:02.888Z,23.90
2022-12-05T16:03:27.415Z,27.52
2022-12-05T16:06:20.316Z,26.67
2022-12-05T16:09:16.976Z,28.30
2022-12-05T16:12:05.677Z,30.45
2022-12-05T16:15:01.696Z,34.60
2022-12-05T16:17:53.061Z,29.17
2022-12-05T16:20:39.263Z,29.15
2022-12-05T16:23:33.420Z,28.40
2022-12-05T16:26:25.064Z,34.53
2022-12-05T16:29:28.190Z,30.65
2022-12-05T16:32:24.457Z,29.73
2022-12-05T16:35:46.145Z,35.72
2022-12-05T16:38:34.861Z,29.38
2022-12-05T16:41:25.280Z,30.50
2022-12-05T16:44:31.632Z,30.30
2022-12-05T16:47:26.270Z,32.15
2022-12-05T16:50:34.989Z,27.35
2022-12-05T16:53:33.170Z,28.02
2022-12-05T16:56:27.516Z,29.65
2022-12-05T16:59:23.363Z,26.85
2022-12-05T17:02:14.797Z,24.95
2022-12-05T17:05:12.233Z,34.53
2022-12-05T17:07:58.486Z,33.22
2022-12-05T17:10:44.656Z,34.15
2022-12-05T17:13:32.535Z,27.15
2022-12-05T17:16:19.315Z,29.30
2022-12-05T17:19:05.446Z,31.63
2022-12-05T17:21:51.825Z,38.10
2022-12-05T17:24:37.980Z,30.63
2022-12-05T17:27:23.903Z,39.22
2022-12-05T17:30:11.577Z,36.65
2022-12-05T17:32:57.695Z,35.58
2022-12-05T17:35:44.033Z,33.92
2022-12-05T17:38:29.595Z,36.78
2022-12-05T17:41:23.399Z,35.53
2022-12-05T17:44:13.734Z,38.63
2022-12-05T17:47:04.423Z,44.75
2022-12-05T17:52:39.060Z,50.15
2022-12-05T17:55:28.485Z,40.95
2022-12-05T17:58:15.179Z,41.42
2022-12-05T18:01:02.517Z,42.25
2022-12-05T18:03:48.882Z,40.05
2022-12-05T18:06:34.733Z,47.25
2022-12-05T18:09:20.523Z,44.22
2022-12-05T18:12:06.575Z,47.67
2022-12-05T18:14:52.391Z,49.08
2022-12-05T18:17:40.665Z,44.83
2022-12-05T18:20:29.818Z,46.95
2022-12-05T18:23:15.560Z,46.17
2022-12-05T18:26:01.532Z,45.28
2022-12-05T18:28:47.558Z,46.92
2022-12-05T18:31:33.422Z,50.22
2022-12-05T18:34:19.313Z,47.95
2022-12-05T18:37:05.039Z,47.20
2022-12-05T18:39:50.838Z,53.38
2022-12-05T18:42:36.987Z,52.35
2022-12-05T18:45:22.611Z,50.20
2022-12-05T18:48:31.447Z,52.22
2022-12-05T18:51:20.818Z,44.70
2022-12-05T18:54:06.828Z,48.05
2022-12-05T18:56:52.895Z,44.42
2022-12-05T18:59:38.719Z,56.45
2022-12-05T19:02:24.703Z,42.55
2022-12-05T19:05:10.168Z,43.85
2022-12-05T19:07:56.093Z,41.67
2022-12-05T19:10:41.745Z,47.13
2022-12-05T19:13:27.530Z,50.72
2022-12-05T19:16:14.626Z,46.03
2022-12-05T19:19:02.297Z,53.15
2022-12-05T19:21:48.384Z,50.28
2022-12-05T19:24:34.203Z,49.92
2022-12-05T19:27:20.454Z,47.10
2022-12-05T19:30:10.116Z,47.03
2022-12-05T19:32:56.272Z,50.78
2022-12-05T19:35:42.099Z,56.58
2022-12-05T19:38:31.556Z,56.17
2022-12-05T19:41:21.451Z,48.75
2022-12-05T19:44:07.263Z,49.55
2022-12-05T19:46:54.640Z,46.92
2022-12-05T19:49:40.295Z,47.90
2022-12-05T19:52:26.665Z,47.97
2022-12-05T19:55:13.206Z,53.88
2022-12-05T19:57:59.144Z,52.20
2022-12-05T20:00:45.164Z,48.05
2022-12-05T20:03:30.744Z,53.28
2022-12-05T20:06:17.539Z,52.65
2022-12-05T20:09:03.665Z,49.15
2022-12-05T20:11:56.039Z,51.47
2022-12-05T20:14:41.848Z,51.60
2022-12-05T20:17:28.335Z,53.50
2022-12-05T20:20:14.172Z,56.95
2022-12-05T20:22:59.618Z,47.78
2022-12-05T20:25:45.977Z,52.40
2022-12-05T20:28:32.528Z,52.42
2022-12-05T20:31:23.410Z,52.40
2022-12-05T20:34:13.901Z,53.42
2022-12-05T20:36:59.690Z,52.45
2022-12-05T20:39:45.646Z,54.17
2022-12-05T20:42:31.495Z,58.22
2022-12-05T20:45:17.754Z,58.53
2022-12-05T20:48:03.695Z,55.90
2022-12-05T20:50:49.275Z,52.20
2022-12-05T20:53:37.111Z,53.35
2022-12-05T20:56:31.806Z,51.17
2022-12-05T20:59:17.741Z,54.15
2022-12-05T21:02:03.688Z,48.78
2022-12-05T21:04:49.626Z,48.65
2022-12-05T21:07:35.033Z,50.53
2022-12-05T21:10:21.183Z,52.38
2022-12-05T21:13:07.338Z,50.63
2022-12-05T21:15:52.912Z,53.92
2022-12-05T21:18:39.718Z,57.30
2022-12-05T21:21:28.094Z,58.90
2022-12-05T21:24:14.208Z,60.72
2022-12-05T21:26:59.861Z,56.50
2022-12-05T21:29:45.739Z,56.38
2022-12-05T21:32:31.448Z,50.83
2022-12-05T21:35:17.260Z,46.53
2022-12-05T21:38:03.403Z,45.42
2022-12-05T21:40:48.768Z,52.88
2022-12-05T21:43:35.681Z,50.35
2022-12-05T21:46:21.651Z,56.28
2022-12-05T21:49:07.902Z,51.38
2022-12-05T21:51:53.956Z,57.00
2022-12-05T21:54:39.251Z,48.58
2022-12-05T21:57:24.917Z,38.10
2022-12-05T22:00:10.979Z,38.05
2022-12-05T22:02:56.584Z,33.45
2022-12-05T22:05:42.503Z,39.28
2022-12-05T22:08:29.974Z,37.60
2022-12-05T22:11:19.736Z,30.52
2022-12-05T22:14:05.762Z,33.90
2022-12-05T22:16:51.649Z,30.88
2022-12-05T22:19:37.350Z,34.35
2022-12-05T22:22:23.646Z,41.85
2022-12-05T22:25:10.502Z,36.00
2022-12-05T22:27:56.832Z,34.20
2022-12-05T22:30:47.058Z,32.22
2022-12-05T22:33:35.611Z,34.20
2022-12-05T22:36:21.675Z,41.75
2022-12-05T22:39:07.563Z,40.17
2022-12-05T22:41:53.157Z,43.08
2022-12-05T22:44:38.971Z,40.40
2022-12-05T22:47:24.476Z,38.47
2022-12-05T22:50:10.417Z,41.15
2022-12-05T22:52:56.223Z,41.03
2022-12-05T22:55:41.816Z,40.53
2022-12-05T22:58:27.933Z,33.92
2022-12-05T23:01:21.207Z,37.40
2022-12-05T23:04:10.676Z,37.92
2022-12-05T23:06:56.566Z,32.60
2022-12-05T23:09:42.045Z,32.17
2022-12-05T23:12:28.152Z,31.42
2022-12-05T23:15:14.201Z,33.58
2022-12-05T23:18:00.250Z,31.02
2022-12-05T23:20:46.432Z,36.42
2022-12-05T23:23:31.940Z,35.90
2022-12-05T23:26:18.720Z,34.17
2022-12-05T23:29:04.592Z,31.67
2022-12-05T23:31:50.092Z,34.72
2022-12-05T23:34:35.900Z,31.55
2022-12-05T23:37:21.853Z,38.10
2022-12-05T23:40:08.520Z,36.28
2022-12-05T23:42:54.064Z,34.55
2022-12-05T23:45:39.904Z,30.80
2022-12-05T23:48:26.027Z,28.55
2022-12-05T23:51:17.991Z,30.23
2022-12-05T23:54:04.172Z,30.95
2022-12-05T23:56:49.838Z,34.88
2022-12-05T23:59:35.774Z,29.23
